createdAt,value
2023-01-01T00:01:21.580Z,99520.47
2023-01-01T00:03:52.261Z,99535.03
2023-01-01T00:06:19.146Z,99537.97
2023-01-01T00:08:46.786Z,99533.63
2023-01-01T00:11:13.567Z,99525.25
2023-01-01T00:13:41.630Z,99527.47
2023-01-01T00:16:11.208Z,99533.47
2023-01-01T00:18:38.397Z,99534.44
2023-01-01T00:21:11.379Z,99527.56
2023-01-01T00:23:38.327Z,99528.59
2023-01-01T00:26:16.131Z,99518.00
2023-01-01T00:28:43.084Z,99523.03
2023-01-01T00:31:17.409Z,99525.25
2023-01-01T00:33:44.932Z,99524.50
2023-01-01T00:36:14.608Z,99529.31
2023-01-01T00:38:42.155Z,99517.16
2023-01-01T00:41:08.506Z,99515.50
2023-01-01T00:43:35.022Z,99522.59
2023-01-01T00:46:01.914Z,99514.19
2023-01-01T00:48:28.255Z,99508.59
2023-01-01T00:50:54.626Z,99511.25
2023-01-01T00:53:21.791Z,99509.34
2023-01-01T00:55:50.326Z,99509.00
2023-01-01T00:58:18.437Z,99508.72
2023-01-01T01:00:45.749Z,99513.75
2023-01-01T01:03:27.819Z,99519.06
2023-01-01T01:06:10.852Z,99518.34
2023-01-01T01:08:40.433Z,99519.50
2023-01-01T01:11:17.987Z,99520.84
2023-01-01T01:13:46.766Z,99510.31
2023-01-01T01:16:19.662Z,99513.97
2023-01-01T01:18:46.961Z,99525.09
2023-01-01T01:21:18.831Z,99516.50
2023-01-01T01:23:45.368Z,99518.38
2023-01-01T01:26:14.885Z,99521.28
2023-01-01T01:28:48.863Z,99519.50
2023-01-01T01:31:16.996Z,99518.84
2023-01-01T01:33:44.806Z,99528.06
2023-01-01T01:36:11.657Z,99533.53
2023-01-01T01:38:38.124Z,99538.16
2023-01-01T01:41:04.793Z,99548.53
2023-01-01T01:43:31.074Z,99556.09
2023-01-01T01:46:01.523Z,99553.00
2023-01-01T01:48:28.530Z,99558.59
2023-01-01T01:50:56.433Z,99552.63
2023-01-01T01:53:30.573Z,99555.34
2023-01-01T01:56:02.955Z,99557.31
2023-01-01T01:58:31.248Z,99563.78
2023-01-01T02:00:58.138Z,99569.34
2023-01-01T02:03:59.324Z,99566.88
2023-01-01T02:06:27.913Z,99580.53
2023-01-01T02:08:57.135Z,99563.66
2023-01-01T02:11:23.714Z,99559.06
2023-01-01T02:13:54.240Z,99558.00
2023-01-01T02:16:27.485Z,99542.91
2023-01-01T02:19:05.373Z,99544.84
2023-01-01T02:21:42.974Z,99530.50
2023-01-01T02:24:30.705Z,99533.84
2023-01-01T02:27:03.219Z,99552.25
2023-01-01T02:29:54.233Z,99554.63
2023-01-01T02:32:24.952Z,99556.03
2023-01-01T02:34:57.648Z,99552.66
2023-01-01T02:37:27.353Z,99553.63
2023-01-01T02:39:59.467Z,99557.97
2023-01-01T02:42:29.249Z,99555.16
2023-01-01T02:44:58.241Z,99560.31
2023-01-01T02:47:24.587Z,99563.41
2023-01-01T02:50:09.564Z,99568.28
2023-01-01T02:52:48.861Z,99565.22
2023-01-01T02:55:32.419Z,99566.78
2023-01-01T02:58:46.275Z,99562.56
2023-01-01T03:01:26.310Z,99562.44
2023-01-01T03:04:06.445Z,99560.75
2023-01-01T03:06:42.308Z,99562.41
2023-01-01T03:09:29.347Z,99556.66
2023-01-01T03:12:20.553Z,99566.88
2023-01-01T03:15:01.293Z,99580.84
2023-01-01T03:17:35.273Z,99579.75
2023-01-01T03:20:08.892Z,99584.19
2023-01-01T03:25:12.012Z,99583.75
2023-01-01T03:27:47.061Z,99586.50
2023-01-01T03:30:16.760Z,99593.38
2023-01-01T03:33:00.240Z,99588.03
2023-01-01T03:35:38.818Z,99588.03
2023-01-01T03:38:11.538Z,99592.09
2023-01-01T03:40:39.579Z,99588.06
2023-01-01T03:43:14.499Z,99591.81
2023-01-01T03:45:44.689Z,99590.53
2023-01-01T03:48:11.867Z,99587.88
2023-01-01T03:51:07.017Z,99586.22
2023-01-01T03:53:42.671Z,99588.41
2023-01-01T03:56:31.066Z,99586.69
2023-01-01T03:59:05.606Z,99594.75
2023-01-01T04:01:46.755Z,99597.53
2023-01-01T04:04:15.512Z,99603.78
2023-01-01T04:06:42.125Z,99602.56
2023-01-01T04:09:16.162Z,99593.41
2023-01-01T04:12:04.067Z,99596.38
2023-01-01T04:14:33.675Z,99600.69
2023-01-01T04:17:01.232Z,99589.13
2023-01-01T04:19:28.258Z,99594.16
2023-01-01T04:21:54.577Z,99593.56
2023-01-01T04:24:20.951Z,99591.88
2023-01-01T04:26:48.226Z,99605.03
2023-01-01T04:29:14.698Z,99609.63
2023-01-01T04:31:41.070Z,99609.25
2023-01-01T04:34:07.846Z,99599.72
2023-01-01T04:36:34.526Z,99597.44
2023-01-01T04:39:01.612Z,99598.81
2023-01-01T04:41:28.035Z,99598.41
2023-01-01T04:43:54.350Z,99595.66
2023-01-01T04:46:22.074Z,99603.88
2023-01-01T04:48:49.005Z,99600.09
2023-01-01T04:51:17.784Z,99603.28
2023-01-01T04:53:44.116Z,99585.66
2023-01-01T04:56:13.928Z,99594.06
2023-01-01T04:58:41.838Z,99593.09
2023-01-01T05:01:14.050Z,99607.75
2023-01-01T05:03:40.419Z,99612.41
2023-01-01T05:06:09.561Z,99608.53
2023-01-01T05:08:37.994Z,99611.91
2023-01-01T05:11:07.786Z,99605.78
2023-01-01T05:13:34.892Z,99599.78
2023-01-01T05:16:05.881Z,99603.97
2023-01-01T05:18:32.747Z,99610.22
2023-01-01T05:21:04.411Z,99603.97
2023-01-01T05:23:31.260Z,99618.63
2023-01-01T05:25:58.342Z,99605.63
2023-01-01T05:28:24.811Z,99623.63
2023-01-01T05:30:52.547Z,99619.06
2023-01-01T05:33:19.522Z,99618.53
2023-01-01T05:35:46.223Z,99621.19
2023-01-01T05:38:12.550Z,99612.97
2023-01-01T05:40:40.057Z,99617.41
2023-01-01T05:43:07.283Z,99621.59
2023-01-01T05:45:34.117Z,99610.03
2023-01-01T05:48:00.564Z,99622.34
2023-01-01T05:50:26.870Z,99628.81
2023-01-01T05:52:53.198Z,99625.44
2023-01-01T05:55:19.490Z,99631.00
2023-01-01T05:57:45.782Z,99636.88
2023-01-01T06:00:12.532Z,99624.88
2023-01-01T06:02:38.961Z,99638.56
2023-01-01T06:05:05.591Z,99639.69
2023-01-01T06:07:31.930Z,99644.00
2023-01-01T06:09:58.215Z,99648.19
2023-01-01T06:12:24.516Z,99655.03
2023-01-01T06:14:50.808Z,99646.41
2023-01-01T06:17:17.094Z,99657.00
2023-01-01T06:19:43.427Z,99652.13
2023-01-01T06:22:09.787Z,99649.22
2023-01-01T06:24:39.145Z,99648.09
2023-01-01T06:27:06.933Z,99639.72
2023-01-01T06:29:33.285Z,99652.44
2023-01-01T06:31:59.567Z,99657.88
2023-01-01T06:34:25.916Z,99651.47
2023-01-01T06:36:52.240Z,99670.44
2023-01-01T06:39:18.575Z,99673.22
2023-01-01T06:41:44.915Z,99677.66
2023-01-01T06:44:11.205Z,99686.59
2023-01-01T06:46:37.603Z,99695.00
2023-01-01T06:49:06.741Z,99700.03
2023-01-01T06:51:37.803Z,99701.72
2023-01-01T06:54:04.940Z,99706.75
2023-01-01T06:56:31.674Z,99710.09
2023-01-01T06:58:58.364Z,99705.09
2023-01-01T07:01:27.766Z,99704.44
2023-01-01T07:03:55.592Z,99708.78
2023-01-01T07:06:23.270Z,99700.06
2023-01-01T07:08:50.008Z,99714.59
2023-01-01T07:11:16.887Z,99711.28
2023-01-01T07:13:44.073Z,99718.50
2023-01-01T07:16:13.503Z,99722.13
2023-01-01T07:18:40.555Z,99733.31
2023-01-01T07:21:28.702Z,99724.78
2023-01-01T07:23:56.325Z,99726.31
2023-01-01T07:26:27.791Z,99732.28
2023-01-01T07:28:54.163Z,99724.53
2023-01-01T07:31:20.728Z,99740.59
2023-01-01T07:33:47.301Z,99736.41
2023-01-01T07:36:13.954Z,99729.69
2023-01-01T07:38:40.332Z,99740.44
2023-01-01T07:41:07.049Z,99741.44
2023-01-01T07:43:33.467Z,99744.38
2023-01-01T07:46:00.105Z,99742.56
2023-01-01T07:48:26.731Z,99747.84
2023-01-01T07:50:53.122Z,99738.09
2023-01-01T07:53:19.474Z,99741.09
2023-01-01T07:55:45.840Z,99771.56
2023-01-01T07:58:13.100Z,99763.72
2023-01-01T08:00:40.132Z,99762.63
2023-01-01T08:03:07.844Z,99766.78
2023-01-01T08:05:35.723Z,99762.19
2023-01-01T08:08:02.055Z,99771.38
2023-01-01T08:10:28.367Z,99777.38
2023-01-01T08:13:00.210Z,99774.31
2023-01-01T08:15:26.607Z,99771.00
2023-01-01T08:18:00.828Z,99773.91
2023-01-01T08:20:28.709Z,99778.94
2023-01-01T08:22:55.318Z,99779.31
2023-01-01T08:25:22.067Z,99774.63
2023-01-01T08:27:48.703Z,99786.75
2023-01-01T08:30:16.343Z,99788.69
2023-01-01T08:32:42.697Z,99793.28
2023-01-01T08:35:09.732Z,99802.41
2023-01-01T08:37:36.058Z,99792.97
2023-01-01T08:40:02.467Z,99785.72
2023-01-01T08:42:28.807Z,99793.03
2023-01-01T08:44:55.135Z,99785.78
2023-01-01T08:47:23.838Z,99784.09
2023-01-01T08:49:50.573Z,99790.59
2023-01-01T08:52:18.008Z,99798.47
2023-01-01T08:54:44.684Z,99809.50
2023-01-01T08:57:11.792Z,99813.69
2023-01-01T08:59:38.134Z,99818.03
2023-01-01T09:02:04.866Z,99811.63
2023-01-01T09:04:31.722Z,99803.84
2023-01-01T09:06:58.171Z,99809.66
2023-01-01T09:09:31.052Z,99803.53
2023-01-01T09:12:01.612Z,99804.34
2023-01-01T09:14:27.927Z,99815.56
2023-01-01T09:16:54.234Z,99826.75
2023-01-01T09:19:20.535Z,99815.16
2023-01-01T09:21:46.848Z,99825.06
2023-01-01T09:24:13.185Z,99816.59
2023-01-01T09:26:39.503Z,99819.50
2023-01-01T09:29:05.784Z,99833.03
2023-01-01T09:31:32.187Z,99837.94
2023-01-01T09:33:58.536Z,99834.88
2023-01-01T09:36:28.634Z,99816.44
2023-01-01T09:38:56.428Z,99817.56
2023-01-01T09:41:44.775Z,99834.88
2023-01-01T09:44:26.268Z,99846.28
2023-01-01T09:46:53.959Z,99844.13
2023-01-01T09:49:42.742Z,99836.88
2023-01-01T09:52:13.570Z,99846.25
2023-01-01T09:54:47.631Z,99851.97
2023-01-01T09:57:19.760Z,99856.41
2023-01-01T09:59:46.739Z,99849.72
2023-01-01T10:02:48.084Z,99855.03
2023-01-01T10:05:47.665Z,99858.41
2023-01-01T10:08:44.720Z,99860.09
2023-01-01T10:11:35.451Z,99871.00
2023-01-01T10:14:10.054Z,99863.00
2023-01-01T10:16:40.075Z,99861.91
2023-01-01T10:19:22.328Z,99860.34
2023-01-01T10:21:52.119Z,99864.56
2023-01-01T10:24:39.615Z,99850.63
2023-01-01T10:27:06.623Z,99855.34
2023-01-01T10:29:41.683Z,99851.72
2023-01-01T10:32:26.771Z,99860.41
2023-01-01T10:34:53.244Z,99859.84
2023-01-01T10:37:20.600Z,99847.53
2023-01-01T10:39:48.028Z,99848.34
2023-01-01T10:42:15.550Z,99850.63
2023-01-01T10:44:42.963Z,99846.28
2023-01-01T10:47:23.877Z,99850.88
2023-01-01T10:49:59.506Z,99842.66
2023-01-01T10:52:31.511Z,99848.22
2023-01-01T10:54:59.811Z,99845.03
2023-01-01T10:57:40.244Z,99849.66
2023-01-01T11:00:28.400Z,99846.72
2023-01-01T11:03:18.008Z,99847.88
2023-01-01T11:06:18.026Z,99850.06
2023-01-01T11:08:51.314Z,99856.81
2023-01-01T11:11:21.582Z,99844.25
2023-01-01T11:13:51.168Z,99843.53
2023-01-01T11:16:17.743Z,99838.88
2023-01-01T11:18:44.340Z,99827.72
2023-01-01T11:21:10.865Z,99832.47
2023-01-01T11:23:39.770Z,99823.00
2023-01-01T11:26:20.512Z,99808.06
2023-01-01T11:28:59.115Z,99814.75
2023-01-01T11:31:38.816Z,99804.28
2023-01-01T11:34:22.759Z,99813.06
2023-01-01T11:36:49.105Z,99803.00
2023-01-01T11:39:26.667Z,99800.78
2023-01-01T11:41:57.715Z,99806.81
2023-01-01T11:44:27.124Z,99807.78
2023-01-01T11:46:53.782Z,99802.63
2023-01-01T11:49:27.208Z,99804.84
2023-01-01T11:51:53.711Z,99805.31
2023-01-01T11:54:29.570Z,99799.88
2023-01-01T11:57:02.409Z,99793.44
2023-01-01T11:59:37.902Z,99796.88
2023-01-01T12:02:05.079Z,99805.19
2023-01-01T12:04:45.065Z,99810.91
2023-01-01T12:07:23.584Z,99814.69
2023-01-01T12:10:02.872Z,99812.28
2023-01-01T12:12:41.398Z,99812.59
2023-01-01T12:15:20.156Z,99809.09
2023-01-01T12:18:06.196Z,99823.88
2023-01-01T12:20:38.043Z,99826.91
2023-01-01T12:23:04.778Z,99821.59
2023-01-01T12:25:43.702Z,99819.94
2023-01-01T12:28:27.212Z,99818.53
2023-01-01T12:31:10.826Z,99823.69
2023-01-01T12:33:59.162Z,99825.25
2023-01-01T12:36:56.530Z,99820.75
2023-01-01T12:39:54.223Z,99822.72
2023-01-01T12:42:29.176Z,99823.84
2023-01-01T12:45:17.633Z,99823.41
2023-01-01T12:48:28.495Z,99813.75
2023-01-01T12:51:19.631Z,99818.38
2023-01-01T12:54:14.097Z,99814.88
2023-01-01T12:56:48.083Z,99815.84
2023-01-01T12:59:20.404Z,99814.06
2023-01-01T13:01:48.281Z,99810.41
2023-01-01T13:04:19.333Z,99810.13
2023-01-01T13:06:50.832Z,99806.91
2023-01-01T13:09:26.381Z,99807.19
2023-01-01T13:11:57.588Z,99810.41
2023-01-01T13:14:23.840Z,99808.03
2023-01-01T13:16:57.643Z,99797.00
2023-01-01T13:19:30.582Z,99804.81
2023-01-01T13:21:56.975Z,99796.84
2023-01-01T13:24:25.860Z,99794.06
2023-01-01T13:26:52.657Z,99806.50
2023-01-01T13:29:18.919Z,99795.03
2023-01-01T13:31:48.355Z,99814.63
2023-01-01T13:34:29.936Z,99810.00
2023-01-01T13:37:12.632Z,99816.28
2023-01-01T13:40:01.395Z,99803.16
2023-01-01T13:43:04.645Z,99800.50
2023-01-01T13:48:42.696Z,99792.53
2023-01-01T13:52:03.554Z,99798.97
2023-01-01T13:54:36.189Z,99807.19
2023-01-01T13:57:56.832Z,99806.09
2023-01-01T14:00:57.931Z,99793.91
2023-01-01T14:03:27.126Z,99790.03
2023-01-01T14:06:01.676Z,99781.09
2023-01-01T14:08:29.917Z,99786.25
2023-01-01T14:10:57.500Z,99787.38
2023-01-01T14:13:29.971Z,99793.66
2023-01-01T14:16:03.189Z,99798.25
2023-01-01T14:18:38.390Z,99798.53
2023-01-01T14:21:13.201Z,99800.34
2023-01-01T14:23:43.851Z,99799.81
2023-01-01T14:26:13.629Z,99810.13
2023-01-01T14:28:41.467Z,99806.75
2023-01-01T14:31:12.912Z,99802.16
2023-01-01T14:33:39.701Z,99786.78
2023-01-01T14:36:16.361Z,99789.19
2023-01-01T14:38:45.184Z,99795.28
2023-01-01T14:41:18.784Z,99797.69
2023-01-01T14:43:47.700Z,99805.63
2023-01-01T14:46:20.584Z,99805.78
2023-01-01T14:48:50.096Z,99813.88
2023-01-01T14:51:21.695Z,99808.25
2023-01-01T14:53:50.351Z,99807.72
2023-01-01T14:56:34.020Z,99814.84
2023-01-01T14:59:19.210Z,99798.63
2023-01-01T15:01:45.727Z,99806.28
2023-01-01T15:04:22.732Z,99800.97
2023-01-01T15:06:56.922Z,99816.19
2023-01-01T15:09:23.966Z,99812.00
2023-01-01T15:11:54.860Z,99809.22
2023-01-01T15:14:33.568Z,99799.72
2023-01-01T15:17:11.536Z,99812.84
2023-01-01T15:19:41.108Z,99817.56
2023-01-01T15:22:25.041Z,99823.72
2023-01-01T15:24:51.759Z,99814.34
2023-01-01T15:27:29.004Z,99814.91
2023-01-01T15:29:56.933Z,99814.75
2023-01-01T15:32:27.134Z,99815.56
2023-01-01T15:34:56.522Z,99808.34
2023-01-01T15:37:34.910Z,99805.69
2023-01-01T15:40:21.183Z,99809.59
2023-01-01T15:43:15.579Z,99804.41
2023-01-01T15:45:50.886Z,99794.75
2023-01-01T15:48:19.549Z,99811.09
2023-01-01T15:50:48.656Z,99799.34
2023-01-01T15:53:19.779Z,99798.78
2023-01-01T15:56:05.447Z,99790.41
2023-01-01T15:58:39.175Z,99795.97
2023-01-01T16:01:09.090Z,99807.28
2023-01-01T16:03:37.399Z,99806.59
2023-01-01T16:06:04.013Z,99802.50
2023-01-01T16:08:30.326Z,99806.41
2023-01-01T16:10:56.922Z,99808.53
2023-01-01T16:13:23.403Z,99812.28
2023-01-01T16:16:01.428Z,99812.81
2023-01-01T16:18:34.103Z,99808.75
2023-01-01T16:21:01.861Z,99803.06
2023-01-01T16:23:28.565Z,99803.06
2023-01-01T16:25:54.893Z,99794.63
2023-01-01T16:28:21.288Z,99800.50
2023-01-01T16:30:47.757Z,99792.94
2023-01-01T16:33:17.001Z,99788.50
2023-01-01T16:35:43.960Z,99785.00
2023-01-01T16:38:10.681Z,99773.56
2023-01-01T16:40:38.362Z,99771.94
2023-01-01T16:43:09.300Z,99775.25
2023-01-01T16:45:35.785Z,99772.69
2023-01-01T16:48:02.104Z,99769.06
2023-01-01T16:50:28.408Z,99773.66
2023-01-01T16:52:54.751Z,99780.25
2023-01-01T16:55:21.052Z,99778.88
2023-01-01T16:57:47.729Z,99773.56
2023-01-01T17:00:14.790Z,99773.56
2023-01-01T17:02:41.957Z,99771.72
2023-01-01T17:05:09.697Z,99769.94
2023-01-01T17:07:36.086Z,99766.41
2023-01-01T17:10:02.707Z,99768.91
2023-01-01T17:12:29.037Z,99764.31
2023-01-01T17:14:55.374Z,99755.91
2023-01-01T17:17:21.698Z,99751.97
2023-01-01T17:19:50.466Z,99751.16
2023-01-01T17:22:16.840Z,99753.00
2023-01-01T17:24:43.708Z,99761.34
2023-01-01T17:27:10.256Z,99754.69
2023-01-01T17:29:37.612Z,99751.31
2023-01-01T17:32:04.144Z,99758.41
2023-01-01T17:34:30.508Z,99738.06
2023-01-01T17:36:56.841Z,99738.88
2023-01-01T17:39:23.172Z,99730.91
2023-01-01T17:41:49.593Z,99722.13
2023-01-01T17:44:15.896Z,99716.84
2023-01-01T17:46:43.996Z,99710.97
2023-01-01T17:49:10.420Z,99712.94
2023-01-01T17:51:37.230Z,99700.66
2023-01-01T17:54:04.601Z,99706.75
2023-01-01T17:56:30.970Z,99702.00
2023-01-01T17:58:58.043Z,99708.44
2023-01-01T18:01:32.550Z,99700.34
2023-01-01T18:04:01.917Z,99702.19
2023-01-01T18:06:30.005Z,99684.44
2023-01-01T18:08:59.106Z,99697.28
2023-01-01T18:11:30.150Z,99693.66
2023-01-01T18:14:01.844Z,99702.41
2023-01-01T18:16:30.414Z,99716.94
2023-01-01T18:19:00.838Z,99704.06
2023-01-01T18:21:27.475Z,99706.78
2023-01-01T18:23:55.292Z,99696.22
2023-01-01T18:26:24.006Z,99689.13
2023-01-01T18:28:55.243Z,99682.56
2023-01-01T18:31:22.992Z,99682.91
2023-01-01T18:33:49.811Z,99691.00
2023-01-01T18:36:19.728Z,99682.97
2023-01-01T18:38:55.394Z,99676.84
2023-01-01T18:41:39.290Z,99681.25
2023-01-01T18:44:16.842Z,99679.13
2023-01-01T18:46:43.174Z,99676.47
2023-01-01T18:49:11.279Z,99672.88
2023-01-01T18:51:37.606Z,99676.38
2023-01-01T18:54:12.764Z,99674.41
2023-01-01T18:56:39.622Z,99664.81
2023-01-01T18:59:18.792Z,99675.56
2023-01-01T19:01:45.979Z,99671.34
2023-01-01T19:04:12.649Z,99657.72
2023-01-01T19:06:39.432Z,99651.00
2023-01-01T19:09:25.303Z,99647.78
2023-01-01T19:11:55.150Z,99641.78
2023-01-01T19:14:23.999Z,99635.50
2023-01-01T19:16:54.942Z,99637.28
2023-01-01T19:19:23.097Z,99642.75
2023-01-01T19:21:53.952Z,99641.84
2023-01-01T19:24:27.952Z,99641.38
2023-01-01T19:27:16.453Z,99630.78
2023-01-01T19:29:45.537Z,99623.63
2023-01-01T19:32:11.899Z,99629.66
2023-01-01T19:34:39.588Z,99633.28
2023-01-01T19:37:06.729Z,99633.03
2023-01-01T19:39:34.357Z,99634.78
2023-01-01T19:42:05.020Z,99634.56
2023-01-01T19:44:31.758Z,99628.56
2023-01-01T19:46:58.182Z,99623.72
2023-01-01T19:49:24.543Z,99621.78
2023-01-01T19:51:50.876Z,99619.69
2023-01-01T19:54:18.278Z,99615.66
2023-01-01T19:56:45.958Z,99611.41
2023-01-01T19:59:12.313Z,99601.72
2023-01-01T20:01:38.828Z,99598.25
2023-01-01T20:04:05.365Z,99598.81
2023-01-01T20:06:33.822Z,99601.56
2023-01-01T20:09:00.187Z,99603.13
2023-01-01T20:11:29.471Z,99602.72
2023-01-01T20:13:55.765Z,99590.97
2023-01-01T20:16:22.197Z,99589.34
2023-01-01T20:18:49.294Z,99578.16
2023-01-01T20:21:35.594Z,99583.78
2023-01-01T20:24:01.898Z,99572.88
2023-01-01T20:26:28.807Z,99579.34
2023-01-01T20:29:13.872Z,99574.00
2023-01-01T20:31:40.287Z,99570.38
2023-01-01T20:34:06.740Z,99565.34
2023-01-01T20:36:51.707Z,99564.25
2023-01-01T20:39:18.080Z,99578.88
2023-01-01T20:41:44.429Z,99593.25
2023-01-01T20:44:10.738Z,99595.13
2023-01-01T20:46:38.187Z,99594.69
2023-01-01T20:49:05.015Z,99585.41
2023-01-01T20:51:31.321Z,99599.78
2023-01-01T20:53:57.644Z,99584.69
2023-01-01T20:56:23.948Z,99587.59
2023-01-01T20:58:56.112Z,99580.38
2023-01-01T21:01:25.597Z,99573.38
2023-01-01T21:03:51.987Z,99556.53
2023-01-01T21:06:24.107Z,99566.44
2023-01-01T21:08:51.282Z,99567.22
2023-01-01T21:11:17.587Z,99565.44
2023-01-01T21:13:44.341Z,99558.91
2023-01-01T21:16:13.707Z,99564.22
2023-01-01T21:18:41.345Z,99564.94
2023-01-01T21:21:30.044Z,99555.19
2023-01-01T21:24:14.284Z,99558.28
2023-01-01T21:26:42.606Z,99555.50
2023-01-01T21:29:15.023Z,99552.69
2023-01-01T21:31:42.993Z,99546.97
2023-01-01T21:34:36.707Z,99547.53
2023-01-01T21:37:15.676Z,99546.25
2023-01-01T21:39:42.150Z,99540.41
2023-01-01T21:42:23.758Z,99540.41
2023-01-01T21:44:57.301Z,99549.63
2023-01-01T21:47:25.357Z,99549.78
2023-01-01T21:49:56.178Z,99543.59
2023-01-01T21:52:24.720Z,99548.66
2023-01-01T21:54:52.834Z,99534.97
2023-01-01T21:57:22.603Z,99548.66
2023-01-01T21:59:50.250Z,99553.94
2023-01-01T22:02:30.893Z,99550.47
2023-01-01T22:05:00.605Z,99550.47
2023-01-01T22:10:44.666Z,99540.84
2023-01-01T22:13:16.705Z,99548.22
2023-01-01T22:15:44.280Z,99544.84
2023-01-01T22:18:28.252Z,99537.91
2023-01-01T22:20:56.094Z,99546.84
2023-01-01T22:23:40.336Z,99548.38
2023-01-01T22:26:23.039Z,99540.25
2023-01-01T22:28:52.703Z,99535.53
2023-01-01T22:31:23.902Z,99555.47
2023-01-01T22:33:53.746Z,99550.16
2023-01-01T22:36:30.911Z,99548.66
2023-01-01T22:39:02.101Z,99539.00
2023-01-01T22:41:28.742Z,99549.19
2023-01-01T22:44:00.665Z,99550.16
2023-01-01T22:46:31.805Z,99552.97
2023-01-01T22:48:59.704Z,99550.06
2023-01-01T22:51:32.043Z,99550.31
2023-01-01T22:53:58.354Z,99547.81
2023-01-01T22:56:24.706Z,99547.38
2023-01-01T22:58:56.820Z,99558.44
2023-01-01T23:01:23.869Z,99561.78
2023-01-01T23:03:50.459Z,99566.53
2023-01-01T23:06:18.046Z,99567.94
2023-01-01T23:08:44.622Z,99562.63
2023-01-01T23:11:11.247Z,99564.16
2023-01-01T23:13:55.944Z,99562.19
2023-01-01T23:16:22.648Z,99557.84
2023-01-01T23:18:49.002Z,99557.84
2023-01-01T23:21:26.687Z,99549.91
2023-01-01T23:23:55.906Z,99542.34
2023-01-01T23:26:22.784Z,99551.72
2023-01-01T23:28:49.268Z,99541.81
2023-01-01T23:31:22.749Z,99544.31
2023-01-01T23:33:51.361Z,99550.75
2023-01-01T23:36:17.703Z,99535.81
2023-01-01T23:38:44.161Z,99538.84
2023-01-01T23:41:10.493Z,99537.88
2023-01-01T23:43:43.173Z,99518.03
2023-01-01T23:46:11.686Z,99513.88
2023-01-01T23:48:38.535Z,99514.28
2023-01-01T23:51:05.131Z,99529.78
2023-01-01T23:53:31.487Z,99543.31
2023-01-01T23:55:57.833Z,99539.00
2023-01-01T23:58:24.182Z,99526.84
